Time;durP1;ratioP1;P1;durP2;ratioP2;P2;SDS_P1;SDS_P2;PMS_P1;PMS_P2;Temp;Humidity;BMP_temperature;BMP_pressure;BME280_temperature;BME280_humidity;BME280_pressure;Samples;Min_cycle;Max_cycle;Signal;HPM_P1;HPM_P2
2022/09/07 07:03:16;;;;;;;0.98;0.55;;;;;;;23.47;40.30;94982.72;2579428;54;52165;-79
2022/09/07 07:05:53;;;;;;;0.60;0.60;;;;;;;23.24;40.89;94979.38;2616993;47;20679;-79
2022/09/07 07:08:22;;;;;;;0.68;0.68;;;;;;;22.61;41.11;94979.97;2617242;54;20252;-78
2022/09/07 07:13:32;;;;;;;0.60;0.60;;;;;;;22.37;44.88;94986.66;2616121;47;20798;-78
2022/09/07 07:16:07;;;;;;;1.15;0.80;;;;;;;21.96;42.18;94984.03;2614999;47;20157;-78
2022/09/07 07:18:39;;;;;;;0.77;0.77;;;;;;;22.49;42.76;94994.50;2614463;54;20152;-80
2022/09/07 07:21:10;;;;;;;0.77;0.77;;;;;;;22.99;43.79;94999.13;2614713;47;20168;-80
2022/09/07 07:23:39;;;;;;;0.88;0.77;;;;;;;23.26;41.22;95014.03;2614753;47;20206;-78
2022/09/07 07:26:15;;;;;;;0.65;0.65;;;;;;;23.37;40.66;94969.81;2614665;47;20152;-79
2022/09/07 07:28:46;;;;;;;0.60;0.60;;;;;;;23.74;40.25;95004.09;2615669;54;20157;-76
2022/09/07 07:31:17;;;;;;;0.40;0.40;;;;;;;23.26;40.91;94982.22;2617593;47;20179;-80
2022/09/07 07:33:48;;;;;;;0.60;0.60;;;;;;;22.98;40.43;94991.91;2616999;54;20149;-78
2022/09/07 07:36:19;;;;;;;0.80;0.80;;;;;;;23.19;43.62;94983.78;2617173;47;20164;-82
2022/09/07 07:38:50;;;;;;;1.25;0.75;;;;;;;23.42;40.02;95008.06;2617468;47;20668;-82
2022/09/07 07:41:21;;;;;;;0.70;0.70;;;;;;;22.41;41.11;95017.66;2617031;54;20151;-77
2022/09/07 07:43:55;;;;;;;0.40;0.40;;;;;;;22.64;45.08;95016.75;2616384;54;20156;-77
2022/09/07 07:46:25;;;;;;;0.88;0.88;;;;;;;22.70;41.81;94987.81;2616024;54;20990;-76
2022/09/07 07:48:57;;;;;;;0.40;0.40;;;;;;;23.02;41.89;94980.31;2615853;54;20675;-78
2022/09/07 07:51:27;;;;;;;1.08;0.90;;;;;;;22.92;41.44;95012.22;2616516;47;20166;-76
2022/09/07 07:53:56;;;;;;;0.50;0.50;;;;;;;23.04;43.30;95015.69;2617082;54;20153;-83
2022/09/07 07:56:25;;;;;;;1.02;1.02;;;;;;;23.21;41.50;94972.91;2616857;54;20248;-78
2022/09/07 07:58:54;;;;;;;0.60;0.60;;;;;;;22.96;40.27;94925.53;2616855;54;20149;-85
2022/09/07 08:01:30;;;;;;;0.75;0.75;;;;;;;23.56;39.81;94990.59;2617208;47;20726;-80
2022/09/07 08:10:21;;;;;;;2.78;0.80;;;;;;;24.33;39.04;95017.78;2618099;47;20156;-80
2022/09/07 08:12:51;;;;;;;0.63;0.63;;;;;;;23.23;39.43;94915.09;2621088;54;20163;-78
2022/09/07 08:15:20;;;;;;;0.70;0.70;;;;;;;24.07;40.42;94998.59;2623713;46;20161;-78
2022/09/07 08:17:51;;;;;;;2.05;0.80;;;;;;;23.60;41.02;94960.91;2617559;47;20886;-81
2022/09/07 08:24:20;;;;;;;0.70;0.70;;;;;;;23.39;40.95;95021.09;2616921;47;20686;-80
2022/09/07 08:26:53;;;;;;;0.45;0.45;;;;;;;23.83;40.85;95016.28;2616235;47;20153;-80
2022/09/07 08:29:22;;;;;;;0.70;0.60;;;;;;;23.39;40.65;94923.53;2615766;46;20179;-78
2022/09/07 08:32:08;;;;;;;0.50;0.50;;;;;;;23.24;39.78;94841.38;2617923;54;20164;-82
2022/09/07 08:34:44;;;;;;;0.80;0.80;;;;;;;23.89;39.30;94889.66;2617629;54;20160;-79
2022/09/07 08:40:24;;;;;;;2.58;1.25;;;;;;;25.05;40.36;94995.63;2616885;46;20711;-81
2022/09/07 08:43:21;;;;;;;0.90;0.90;;;;;;;24.03;38.99;94843.16;2616339;47;20235;-79
2022/09/07 08:46:36;;;;;;;0.80;0.80;;;;;;;24.63;39.33;94909.44;2617496;47;20160;-81
2022/09/07 08:49:13;;;;;;;0.70;0.70;;;;;;;25.45;38.74;94985.44;2617320;47;20164;-80
2022/09/07 08:51:48;;;;;;;1.03;0.93;;;;;;;23.63;39.68;94910.28;2617737;47;20993;-80
2022/09/07 08:54:18;;;;;;;0.75;0.75;;;;;;;23.68;40.12;94958.63;2617972;47;20153;-78
2022/09/07 08:56:53;;;;;;;0.60;0.60;;;;;;;24.06;40.54;94957.38;2618212;47;20157;-79
2022/09/07 08:59:26;;;;;;;0.93;0.93;;;;;;;24.32;39.25;94972.94;2618090;54;20198;-81
2022/09/07 09:01:55;;;;;;;0.82;0.82;;;;;;;24.35;39.27;94899.06;2620947;54;20177;-82
2022/09/07 09:04:32;;;;;;;0.85;0.85;;;;;;;24.40;39.61;94883.06;2621345;47;20149;-80
2022/09/07 09:07:28;;;;;;;0.90;0.90;;;;;;;25.44;38.30;94968.81;2622092;54;20745;-82
2022/09/07 09:10:24;;;;;;;0.70;0.70;;;;;;;25.71;37.43;94971.91;2618961;46;20244;-80
2022/09/07 09:13:06;;;;;;;0.80;0.80;;;;;;;24.14;38.66;94903.75;2616801;54;20149;-80
2022/09/07 09:16:10;;;;;;;1.35;1.02;;;;;;;24.42;38.82;94961.22;2617817;54;20204;-84
2022/09/07 09:18:54;;;;;;;0.70;0.70;;;;;;;24.88;38.38;94938.69;2618719;54;20156;-78
2022/09/07 09:21:26;;;;;;;1.00;1.00;;;;;;;25.21;38.32;94951.13;2625346;47;20282;-79
2022/09/07 09:24:08;;;;;;;0.80;0.80;;;;;;;25.72;38.58;94962.44;2622407;46;20164;-81
2022/09/07 09:26:37;;;;;;;0.85;0.85;;;;;;;24.82;38.40;94849.72;2622531;47;20149;-82
2022/09/07 09:31:59;;;;;;;1.42;1.10;;;;;;;24.85;37.18;94795.38;2618464;46;20244;-79
2022/09/07 09:34:28;;;;;;;0.77;0.77;;;;;;;26.05;37.18;94953.75;2619254;47;20158;-80
2022/09/07 09:36:58;;;;;;;0.80;0.80;;;;;;;26.04;36.11;94951.63;2619189;47;20179;-80
2022/09/07 09:39:32;;;;;;;0.93;0.93;;;;;;;25.27;36.87;94864.06;2619155;47;20199;-81
2022/09/07 09:42:15;;;;;;;1.60;1.58;;;;;;;23.87;38.68;94860.75;2624834;54;20144;-78
2022/09/07 09:44:46;;;;;;;0.65;0.60;;;;;;;24.63;39.27;94868.91;2624276;46;20191;-77
2022/09/07 09:47:31;;;;;;;0.82;0.82;;;;;;;25.30;39.25;94931.41;2623913;47;20195;-79
2022/09/07 09:50:01;;;;;;;1.27;0.90;;;;;;;25.47;38.32;94944.81;2620739;39;20552;-81
2022/09/07 09:52:35;;;;;;;0.68;0.63;;;;;;;25.45;36.76;94930.34;2618386;54;20149;-81
2022/09/07 09:55:06;;;;;;;0.60;0.60;;;;;;;26.01;37.52;94929.91;2618354;47;20168;-80
2022/09/07 09:57:56;;;;;;;1.88;0.80;;;;;;;25.20;36.04;94862.75;2619111;46;20149;-80
2022/09/07 10:00:30;;;;;;;0.50;0.50;;;;;;;25.37;36.31;94918.94;2618259;47;20176;-80
2022/09/07 10:03:19;;;;;;;0.68;0.68;;;;;;;25.69;35.82;94925.56;2618603;46;20185;-81
2022/09/07 10:05:49;;;;;;;0.60;0.60;;;;;;;25.32;36.60;94905.25;2619131;54;20156;-80
2022/09/07 10:08:21;;;;;;;0.90;0.88;;;;;;;25.24;36.80;94903.25;2618378;54;20156;-79
2022/09/07 10:10:59;;;;;;;0.88;0.88;;;;;;;25.80;36.67;94924.56;2618785;47;20157;-78
2022/09/07 10:13:34;;;;;;;0.82;0.82;;;;;;;26.07;36.23;94910.19;2619059;54;20393;-77
2022/09/07 10:16:08;;;;;;;0.60;0.60;;;;;;;25.63;36.99;94876.38;2618985;47;20161;-79
2022/09/07 10:18:40;;;;;;;0.85;0.85;;;;;;;25.28;38.26;94908.97;2618812;47;20152;-79
2022/09/07 10:21:22;;;;;;;0.60;0.60;;;;;;;25.64;35.80;94878.50;2618893;54;20295;-78
2022/09/07 10:23:56;;;;;;;0.60;0.60;;;;;;;26.13;35.47;94892.59;2618334;54;20153;-78
2022/09/07 10:26:31;;;;;;;1.23;1.00;;;;;;;26.09;35.03;94872.41;2617938;47;20664;-79
2022/09/07 10:29:14;;;;;;;0.77;0.77;;;;;;;25.82;36.38;94874.50;2618586;54;21029;-79
2022/09/07 10:32:17;;;;;;;0.98;0.98;;;;;;;26.49;35.18;94899.03;2619690;47;20207;-76
2022/09/07 10:34:57;;;;;;;0.80;0.80;;;;;;;26.88;35.60;94884.94;2618064;54;20153;-76
2022/09/07 10:37:36;;;;;;;0.85;0.85;;;;;;;26.54;34.78;94877.13;2621993;47;20149;-78
2022/09/07 10:40:18;;;;;;;0.57;0.57;;;;;;;26.64;35.01;94885.59;2624520;46;20149;-78
2022/09/07 10:42:55;;;;;;;0.70;0.70;;;;;;;26.91;35.47;94885.59;2617619;47;20160;-77
2022/09/07 10:45:32;;;;;;;0.70;0.70;;;;;;;26.73;34.53;94854.84;2618660;54;20156;-80
2022/09/07 10:48:11;;;;;;;0.88;0.88;;;;;;;26.29;36.63;94868.31;2618276;54;20163;-78
2022/09/07 10:50:48;;;;;;;1.20;1.20;;;;;;;25.23;36.39;94861.25;2618349;47;20198;-78
2022/09/07 10:53:40;;;;;;;1.27;0.70;;;;;;;26.19;35.44;94860.53;2616226;47;20206;-78
2022/09/07 10:56:12;;;;;;;1.00;1.00;;;;;;;26.37;35.17;94871.03;2618061;47;20155;-78
2022/09/07 10:59:00;;;;;;;0.85;0.80;;;;;;;25.40;36.82;94873.22;2617820;46;20176;-79
2022/09/07 11:01:46;;;;;;;0.70;0.70;;;;;;;25.85;36.95;94867.16;2618056;47;20204;-77
2022/09/07 11:04:34;;;;;;;0.98;0.98;;;;;;;25.48;36.26;94844.75;2618258;54;20156;-78
2022/09/07 11:07:11;;;;;;;1.20;1.20;;;;;;;25.83;36.02;94830.19;2618604;46;20145;-78
2022/09/07 11:09:53;;;;;;;0.60;0.60;;;;;;;25.92;36.03;94859.03;2618482;47;20145;-79
2022/09/07 11:12:27;;;;;;;0.82;0.82;;;;;;;26.22;35.43;94803.16;2618140;47;20149;-79
2022/09/07 11:15:03;;;;;;;0.73;0.73;;;;;;;27.04;35.82;94834.41;2618223;54;20156;-79
2022/09/07 11:17:38;;;;;;;0.60;0.60;;;;;;;26.94;35.36;94804.88;2618125;54;20172;-77
2022/09/07 11:20:19;;;;;;;0.80;0.80;;;;;;;26.61;35.80;94845.72;2618628;54;20148;-79
2022/09/07 11:22:53;;;;;;;1.45;0.90;;;;;;;26.64;35.90;94835.50;2618822;54;20156;-80
2022/09/07 11:25:26;;;;;;;1.10;0.98;;;;;;;26.68;35.76;94818.66;2618717;54;20613;-79
2022/09/07 11:28:00;;;;;;;2.08;1.10;;;;;;;26.45;34.84;94785.88;2618787;31;20655;-77
2022/09/07 11:30:33;;;;;;;1.08;1.02;;;;;;;26.56;35.91;94830.59;2620169;54;20699;-80
2022/09/07 11:33:07;;;;;;;0.80;0.80;;;;;;;26.62;35.35;94794.88;2619195;54;20152;-79
2022/09/07 11:35:58;;;;;;;1.02;1.02;;;;;;;27.15;35.56;94800.63;2618533;47;20155;-80
2022/09/07 11:38:33;;;;;;;0.80;0.80;;;;;;;25.93;35.52;94771.22;2616100;54;20161;-80
2022/09/07 11:41:15;;;;;;;0.70;0.70;;;;;;;26.96;34.48;94813.56;2618329;54;20156;-78
2022/09/07 11:43:48;;;;;;;0.60;0.60;;;;;;;26.48;35.79;94822.09;2617852;47;20664;-78
2022/09/07 11:46:20;;;;;;;0.60;0.60;;;;;;;27.05;34.39;94838.03;2619801;39;20231;-80
2022/09/07 11:48:54;;;;;;;1.20;1.20;;;;;;;26.86;34.73;94780.38;2618025;47;20716;-79
2022/09/07 11:51:34;;;;;;;0.85;0.85;;;;;;;27.34;35.61;94818.25;2620958;47;20133;-78
2022/09/07 11:54:28;;;;;;;0.50;0.50;;;;;;;27.25;34.95;94793.81;2624218;54;20172;-78
2022/09/07 11:57:03;;;;;;;0.60;0.60;;;;;;;27.30;34.24;94806.75;2615280;47;20161;-77
2022/09/07 11:59:46;;;;;;;0.57;0.57;;;;;;;27.56;34.44;94811.09;2617845;47;20148;-77
2022/09/07 12:02:45;;;;;;;0.73;0.60;;;;;;;27.37;35.03;94813.78;2617487;47;20706;-77
2022/09/07 12:05:25;;;;;;;0.85;0.85;;;;;;;27.38;34.26;94783.22;2618404;54;20160;-78
2022/09/07 12:08:17;;;;;;;0.88;0.88;;;;;;;27.73;33.88;94796.75;2618387;47;20485;-77
2022/09/07 12:11:12;;;;;;;0.73;0.73;;;;;;;26.93;34.78;94783.81;2618202;54;20153;-79
2022/09/07 12:14:12;;;;;;;2.17;1.05;;;;;;;27.07;35.51;94800.84;2617817;47;20196;-78
2022/09/07 12:17:24;;;;;;;0.98;0.90;;;;;;;26.04;36.53;94803.59;2618799;47;20169;-77
2022/09/07 12:20:13;;;;;;;1.05;1.05;;;;;;;27.04;35.78;94790.78;2617929;54;20244;-78
2022/09/07 12:22:57;;;;;;;0.90;0.90;;;;;;;26.89;35.60;94749.78;2614897;54;20164;-78
2022/09/07 12:25:30;;;;;;;0.90;0.90;;;;;;;27.16;34.70;94763.56;2617640;47;20165;-81
2022/09/07 12:27:59;;;;;;;1.02;1.02;;;;;;;26.73;34.44;94717.56;2616075;47;20157;-76
2022/09/07 12:30:57;;;;;;;0.90;0.90;;;;;;;27.37;35.00;94760.72;2617931;39;20254;-79
2022/09/07 12:33:34;;;;;;;0.80;0.80;;;;;;;27.43;35.10;94780.91;2618169;31;20654;-80
2022/09/07 12:36:23;;;;;;;0.73;0.73;;;;;;;27.24;34.82;94772.75;2618640;47;20155;-78
2022/09/07 12:39:19;;;;;;;1.00;1.00;;;;;;;27.59;34.85;94780.44;2617951;54;20153;-79
2022/09/07 12:41:53;;;;;;;0.98;0.82;;;;;;;27.50;36.03;94773.41;2617888;39;20529;-77
2022/09/07 12:44:25;;;;;;;1.48;1.10;;;;;;;26.68;36.02;94759.81;2617386;54;20200;-79
2022/09/07 12:47:03;;;;;;;0.93;0.90;;;;;;;26.10;36.96;94774.44;2617551;54;20141;-79
2022/09/07 12:50:05;;;;;;;1.10;1.00;;;;;;;26.34;36.22;94770.91;2618063;54;20248;-79
2022/09/07 12:52:49;;;;;;;0.60;0.60;;;;;;;26.66;35.75;94742.44;2618275;54;20179;-84
2022/09/07 12:55:55;;;;;;;1.73;1.63;;;;;;;27.14;35.81;94757.81;2618714;47;20148;-80
2022/09/07 12:58:46;;;;;;;0.88;0.88;;;;;;;27.17;35.32;94762.06;2618202;47;20179;-79
2022/09/07 13:01:28;;;;;;;0.65;0.65;;;;;;;27.34;34.72;94757.16;2618203;54;20211;-76
2022/09/07 13:04:33;;;;;;;0.80;0.80;;;;;;;26.49;36.20;94756.72;2619464;47;20163;-77
2022/09/07 13:07:31;;;;;;;0.60;0.60;;;;;;;26.03;35.89;94727.44;2623773;47;20160;-78
2022/09/07 13:10:02;;;;;;;1.10;1.00;;;;;;;26.49;35.23;94719.69;2620130;54;20161;-82
2022/09/07 13:12:43;;;;;;;1.55;1.48;;;;;;;26.41;35.03;94681.44;2619213;47;20171;-82
2022/09/07 13:15:41;;;;;;;0.75;0.75;;;;;;;26.01;34.88;94605.59;2618402;54;20252;-82
2022/09/07 13:18:47;;;;;;;0.90;0.90;;;;;;;25.70;35.20;94602.09;2617976;54;20156;-82
2022/09/07 13:24:54;;;;;;;0.75;0.75;;;;;;;25.39;35.93;94646.34;2617920;54;20200;-79
2022/09/07 13:27:52;;;;;;;0.60;0.60;;;;;;;26.16;36.10;94725.63;2617608;54;20161;-78
2022/09/07 13:30:39;;;;;;;1.15;1.05;;;;;;;26.07;35.47;94730.22;2618361;47;20157;-81
2022/09/07 13:33:53;;;;;;;0.63;0.63;;;;;;;26.56;35.57;94746.34;2617975;54;20149;-80
2022/09/07 13:36:29;;;;;;;0.80;0.80;;;;;;;26.78;34.51;94745.03;2618504;47;20156;-83
2022/09/07 13:39:01;;;;;;;1.00;1.00;;;;;;;27.19;34.66;94730.03;2619055;47;20404;-81
2022/09/07 13:41:37;;;;;;;1.35;1.35;;;;;;;27.38;33.79;94701.09;2619139;54;20153;-82
2022/09/07 13:44:06;;;;;;;0.60;0.60;;;;;;;27.68;33.58;94743.78;2618599;54;20157;-79
2022/09/07 13:46:51;;;;;;;0.80;0.80;;;;;;;27.53;33.37;94717.31;2617611;46;20157;-79
2022/09/07 13:49:31;;;;;;;0.90;0.90;;;;;;;27.32;33.89;94733.28;2618243;46;20168;-78
2022/09/07 13:52:06;;;;;;;1.13;1.05;;;;;;;27.63;33.24;94725.03;2618239;54;20157;-78
2022/09/07 13:54:57;;;;;;;1.10;1.10;;;;;;;27.85;32.76;94729.41;2618779;47;20145;-79
2022/09/07 13:57:30;;;;;;;1.00;1.00;;;;;;;27.57;33.04;94737.59;2620044;46;20157;-79
2022/09/07 14:00:00;;;;;;;1.17;1.17;;;;;;;26.79;34.18;94732.63;2617767;54;20157;-78
2022/09/07 14:02:33;;;;;;;1.00;1.00;;;;;;;27.09;33.52;94699.06;2617771;54;20215;-79
2022/09/07 14:05:03;;;;;;;0.80;0.80;;;;;;;27.43;33.55;94705.28;2618077;47;20303;-78
2022/09/07 14:07:33;;;;;;;0.82;0.80;;;;;;;27.09;33.20;94689.63;2616928;47;20707;-79
2022/09/07 14:10:19;;;;;;;1.05;1.05;;;;;;;27.32;33.11;94696.19;2617514;54;20149;-78
2022/09/07 14:12:51;;;;;;;0.80;0.80;;;;;;;26.97;34.16;94716.16;2617570;54;20155;-77
2022/09/07 14:15:23;;;;;;;0.52;0.52;;;;;;;27.08;34.29;94708.56;2618203;47;20149;-78
2022/09/07 14:18:01;;;;;;;0.77;0.73;;;;;;;27.48;34.18;94729.84;2623716;47;20703;-77
2022/09/07 14:20:31;;;;;;;0.90;0.90;;;;;;;27.27;32.89;94702.91;2617807;47;20175;-77
2022/09/07 14:23:06;;;;;;;0.80;0.80;;;;;;;27.57;33.48;94725.94;2618052;46;20157;-78
2022/09/07 14:25:46;;;;;;;0.60;0.60;;;;;;;26.42;33.04;94677.06;2616970;47;20140;-79
2022/09/07 14:28:33;;;;;;;0.77;0.77;;;;;;;26.52;33.27;94636.81;2618709;54;20148;-78
2022/09/07 14:31:04;;;;;;;0.73;0.73;;;;;;;25.42;35.10;94670.91;2619120;47;20157;-79
2022/09/07 14:33:34;;;;;;;1.10;1.00;;;;;;;25.91;35.53;94729.94;2618608;47;20178;-78
2022/09/07 14:36:03;;;;;;;0.80;0.80;;;;;;;25.85;35.27;94717.00;2618502;47;20153;-79
2022/09/07 14:38:35;;;;;;;1.00;1.00;;;;;;;26.36;35.27;94709.19;2618792;54;20203;-78
2022/09/07 14:41:11;;;;;;;0.80;0.80;;;;;;;26.07;35.35;94724.44;2617903;47;20658;-83
2022/09/07 14:43:52;;;;;;;0.93;0.93;;;;;;;25.93;35.97;94709.56;2619203;46;20172;-81
2022/09/07 14:46:24;;;;;;;1.42;1.05;;;;;;;26.14;35.75;94713.34;2617069;47;20164;-80
2022/09/07 14:48:55;;;;;;;0.65;0.65;;;;;;;25.28;36.48;94691.56;2618317;47;20157;-78
2022/09/07 14:51:26;;;;;;;0.90;0.90;;;;;;;25.58;36.75;94704.59;2615670;54;20154;-79
2022/09/07 14:53:58;;;;;;;0.50;0.50;;;;;;;25.13;37.73;94704.97;2616667;47;20676;-80
2022/09/07 14:56:33;;;;;;;0.60;0.60;;;;;;;24.84;37.87;94663.59;2618200;39;20565;-79
2022/09/07 14:59:01;;;;;;;0.90;0.90;;;;;;;24.72;37.91;94673.25;2617396;54;20503;-78
2022/09/07 15:01:30;;;;;;;0.68;0.68;;;;;;;24.80;38.25;94717.22;2617509;47;20188;-78
2022/09/07 15:04:01;;;;;;;1.08;1.08;;;;;;;24.42;38.95;94706.44;2617709;54;20180;-80
2022/09/07 15:06:36;;;;;;;0.65;0.65;;;;;;;24.60;38.81;94711.16;2617314;54;20149;-78
2022/09/07 15:09:06;;;;;;;0.60;0.60;;;;;;;24.57;39.27;94713.38;2617137;47;20156;-78
2022/09/07 15:11:38;;;;;;;1.00;1.00;;;;;;;24.85;39.63;94714.25;2616915;47;20207;-79
2022/09/07 15:14:13;;;;;;;0.90;0.90;;;;;;;24.62;39.71;94696.63;2617246;47;20707;-80
2022/09/07 15:16:44;;;;;;;0.80;0.80;;;;;;;24.66;40.25;94722.59;2617559;54;20163;-78
2022/09/07 15:19:33;;;;;;;0.65;0.65;;;;;;;25.01;40.29;94719.72;2617274;47;20283;-78
2022/09/07 15:22:02;;;;;;;0.95;0.95;;;;;;;24.54;40.06;94705.47;2616875;47;20148;-78
2022/09/07 15:24:31;;;;;;;1.00;1.00;;;;;;;24.66;40.46;94720.44;2617209;47;20145;-77
2022/09/07 15:27:02;;;;;;;0.70;0.70;;;;;;;24.20;41.96;94703.94;2616429;47;20210;-77
2022/09/07 15:29:43;;;;;;;0.75;0.75;;;;;;;24.18;41.43;94695.31;2616989;54;20164;-84
2022/09/07 15:32:11;;;;;;;0.93;0.82;;;;;;;24.18;41.36;94692.44;2618129;47;20156;-83
2022/09/07 15:34:40;;;;;;;0.75;0.75;;;;;;;24.36;41.68;94721.03;2616227;47;20164;-77
2022/09/07 15:37:10;;;;;;;2.67;1.10;;;;;;;24.42;41.42;94720.94;2617229;54;20176;-78
2022/09/07 15:39:39;;;;;;;0.63;0.63;;;;;;;24.37;41.71;94725.34;2616552;54;20215;-77
2022/09/07 15:42:10;;;;;;;0.93;0.93;;;;;;;24.06;41.60;94725.91;2615795;47;20195;-77
2022/09/07 15:44:41;;;;;;;3.20;0.90;;;;;;;23.83;41.94;94721.25;2616475;47;20152;-77
2022/09/07 15:47:11;;;;;;;0.98;0.98;;;;;;;23.62;41.84;94700.66;2618796;54;20193;-77
2022/09/07 15:49:40;;;;;;;0.90;0.90;;;;;;;23.35;41.91;94649.06;2617354;47;20156;-77
2022/09/07 15:52:08;;;;;;;0.65;0.65;;;;;;;23.97;42.15;94738.38;2616527;47;20191;-77
2022/09/07 15:54:37;;;;;;;0.90;0.90;;;;;;;23.98;42.20;94739.81;2615388;47;20656;-77
2022/09/07 15:57:06;;;;;;;1.30;1.20;;;;;;;23.96;41.84;94728.97;2615249;54;20423;-77
2022/09/07 15:59:37;;;;;;;0.80;0.80;;;;;;;23.79;41.92;94727.84;2614969;47;20248;-77
2022/09/07 16:02:06;;;;;;;0.95;0.95;;;;;;;23.48;42.19;94709.56;2613335;47;20207;-78
2022/09/07 16:04:35;;;;;;;1.13;1.13;;;;;;;23.26;43.18;94708.44;2615738;54;20196;-78
2022/09/07 16:07:03;;;;;;;0.70;0.70;;;;;;;23.64;45.32;94695.56;2615754;54;20237;-75
2022/09/07 16:09:34;;;;;;;1.13;1.13;;;;;;;24.04;46.19;94723.06;2613948;54;20160;-75
2022/09/07 16:12:11;;;;;;;1.00;1.00;;;;;;;23.56;46.31;94680.53;2611895;54;20171;-77
2022/09/07 16:14:43;;;;;;;1.23;1.23;;;;;;;23.66;46.99;94729.50;2600016;54;20152;-76
2022/09/07 16:17:15;;;;;;;1.15;1.15;;;;;;;23.00;48.02;94714.59;2614791;39;20651;-75
2022/09/07 16:19:46;;;;;;;1.33;1.33;;;;;;;22.55;48.80;94700.03;2613626;54;20157;-75
2022/09/07 16:22:19;;;;;;;0.95;0.95;;;;;;;22.39;49.34;94674.28;2615323;54;20184;-75
2022/09/07 16:24:50;;;;;;;2.05;1.70;;;;;;;21.59;49.50;94587.97;2615797;54;20165;-76
2022/09/07 16:27:19;;;;;;;0.85;0.85;;;;;;;22.11;49.47;94667.41;2615274;54;20339;-76
2022/09/07 16:29:52;;;;;;;0.70;0.70;;;;;;;22.48;50.01;94722.50;2614814;54;20748;-78
2022/09/07 16:32:22;;;;;;;1.00;0.82;;;;;;;21.96;49.72;94689.88;2613485;54;20223;-75
2022/09/07 16:34:50;;;;;;;1.80;1.67;;;;;;;22.00;50.00;94723.03;2615217;54;20172;-75
2022/09/07 16:37:19;;;;;;;1.25;1.25;;;;;;;21.79;50.30;94711.69;2615199;39;20254;-76
2022/09/07 16:39:48;;;;;;;1.17;1.17;;;;;;;21.67;50.82;94708.19;2614603;54;20160;-75
2022/09/07 16:42:17;;;;;;;1.13;1.13;;;;;;;21.55;51.54;94724.16;2619818;39;20691;-75
2022/09/07 16:44:46;;;;;;;1.52;1.48;;;;;;;21.12;51.91;94677.66;2616857;54;20156;-77
2022/09/07 16:47:17;;;;;;;1.45;1.38;;;;;;;20.26;51.34;94587.53;2615222;47;20179;-76
2022/09/07 16:49:46;;;;;;;1.00;1.00;;;;;;;20.99;50.82;94687.13;2615298;54;20161;-76
2022/09/07 16:52:23;;;;;;;0.95;0.95;;;;;;;20.70;50.79;94655.63;2615618;47;20684;-77
2022/09/07 16:54:52;;;;;;;1.20;1.20;;;;;;;21.03;50.92;94699.31;2618144;54;20157;-75
2022/09/07 16:57:20;;;;;;;0.88;0.88;;;;;;;21.08;51.24;94717.28;2618331;54;20165;-76
2022/09/07 16:59:50;;;;;;;1.27;1.25;;;;;;;21.05;50.86;94710.81;2615737;47;20676;-77
2022/09/07 17:02:21;;;;;;;0.93;0.93;;;;;;;20.95;51.07;94722.41;2616066;46;20220;-75
2022/09/07 17:04:52;;;;;;;1.50;1.38;;;;;;;20.99;50.88;94728.13;2620297;54;20157;-76
2022/09/07 17:07:21;;;;;;;0.93;0.93;;;;;;;20.93;50.83;94731.03;2617116;47;20184;-75
2022/09/07 17:09:52;;;;;;;1.25;1.15;;;;;;;20.94;50.84;94724.56;2615552;46;21042;-75
2022/09/07 17:12:20;;;;;;;1.13;1.13;;;;;;;21.03;50.56;94738.91;2615267;51;20153;-75
2022/09/07 17:14:50;;;;;;;0.80;0.80;;;;;;;20.90;50.41;94718.84;2616378;47;20980;-77
2022/09/07 17:17:22;;;;;;;1.75;0.90;;;;;;;20.81;50.91;94713.84;2616017;47;20205;-75
2022/09/07 17:19:51;;;;;;;1.35;1.35;;;;;;;21.18;51.86;94738.06;2615247;47;20157;-75
2022/09/07 17:22:19;;;;;;;0.90;0.90;;;;;;;21.53;51.39;94749.38;2615907;39;20379;-77
2022/09/07 17:24:53;;;;;;;0.75;0.75;;;;;;;21.82;50.84;94753.47;2615512;54;20280;-76
2022/09/07 17:27:40;;;;;;;0.80;0.80;;;;;;;21.76;50.81;94724.66;2616303;47;20207;-74
2022/09/07 17:30:09;;;;;;;1.13;0.98;;;;;;;21.69;51.14;94708.19;2617379;54;20149;-80
2022/09/07 17:32:41;;;;;;;1.58;1.58;;;;;;;22.09;50.24;94730.88;2617186;47;20157;-80
2022/09/07 17:35:10;;;;;;;0.93;0.93;;;;;;;22.23;49.76;94709.81;2616580;47;20180;-80
2022/09/07 17:37:41;;;;;;;1.30;1.30;;;;;;;22.42;49.33;94739.88;2617059;54;20157;-79
2022/09/07 17:40:11;;;;;;;1.30;1.30;;;;;;;22.28;49.82;94748.69;2616596;39;20530;-79
2022/09/07 17:42:40;;;;;;;0.93;0.93;;;;;;;22.21;50.20;94753.09;2616460;46;20153;-80
2022/09/07 17:45:10;;;;;;;10.57;5.22;;;;;;;22.22;50.26;94757.41;2616531;54;20155;-80
2022/09/07 17:47:41;;;;;;;2.03;1.92;;;;;;;22.14;50.23;94760.41;2616408;54;20168;-82
2022/09/07 17:50:14;;;;;;;4.15;2.15;;;;;;;21.73;50.28;94743.44;2614630;46;20172;-80
2022/09/07 17:52:43;;;;;;;3.35;2.47;;;;;;;21.11;52.13;94756.13;2616135;47;20152;-80
2022/09/07 17:55:11;;;;;;;2.80;1.67;;;;;;;20.42;53.99;94757.19;2622425;47;20161;-82
2022/09/07 17:57:40;;;;;;;2.58;2.47;;;;;;;20.74;53.91;94782.25;2614027;39;20562;-81
2022/09/07 18:00:11;;;;;;;3.20;3.00;;;;;;;21.03;53.18;94764.84;2608167;47;20172;-77
2022/09/07 18:02:42;;;;;;;4.35;4.15;;;;;;;21.02;53.15;94783.56;2612375;47;20227;-77
2022/09/07 18:05:11;;;;;;;4.70;4.35;;;;;;;20.92;53.21;94764.88;2615482;47;20160;-77
2022/09/07 18:07:40;;;;;;;5.03;4.72;;;;;;;20.69;53.14;94745.56;2614685;54;20191;-77
2022/09/07 18:10:09;;;;;;;4.65;4.22;;;;;;;20.36;53.30;94771.63;2616264;47;20154;-79
2022/09/07 18:12:38;;;;;;;4.38;4.00;;;;;;;19.69;56.32;94770.97;2616364;54;20161;-78
2022/09/07 18:15:08;;;;;;;3.75;3.47;;;;;;;20.16;55.88;94778.09;2613976;47;20279;-78
2022/09/07 18:17:38;;;;;;;3.47;3.17;;;;;;;20.24;55.13;94786.69;2614065;39;20679;-80
2022/09/07 18:20:10;;;;;;;2.55;2.38;;;;;;;19.75;56.13;94791.09;2613924;39;20548;-79
2022/09/07 18:22:39;;;;;;;2.03;1.92;;;;;;;19.72;55.82;94764.50;2617586;47;20199;-78
2022/09/07 18:25:08;;;;;;;2.50;2.30;;;;;;;20.16;55.68;94774.50;2613494;46;20176;-79
2022/09/07 18:27:37;;;;;;;2.17;2.08;;;;;;;20.42;54.70;94785.25;2611923;39;20869;-78
2022/09/07 18:30:07;;;;;;;2.03;1.83;;;;;;;20.73;53.23;94800.25;2613505;54;20165;-78
2022/09/07 18:32:36;;;;;;;2.38;2.28;;;;;;;20.56;53.22;94808.94;2612961;47;20206;-78
2022/09/07 18:35:04;;;;;;;1.95;1.85;;;;;;;19.75;55.51;94794.69;2615537;54;20187;-78
2022/09/07 18:37:35;;;;;;;2.38;2.17;;;;;;;20.32;54.63;94800.34;2615851;47;20157;-78
2022/09/07 18:40:07;;;;;;;2.03;1.92;;;;;;;20.21;55.00;94801.81;2616433;47;20149;-78
2022/09/07 18:42:35;;;;;;;3.15;2.90;;;;;;;20.04;54.41;94794.66;2615888;54;20165;-78
2022/09/07 18:45:05;;;;;;;2.57;2.40;;;;;;;19.75;54.64;94777.44;2616306;47;20463;-78
2022/09/07 18:47:34;;;;;;;2.58;2.47;;;;;;;19.83;55.29;94809.03;2614737;54;20921;-79
2022/09/07 18:50:02;;;;;;;5.03;2.40;;;;;;;19.77;55.17;94788.94;2614857;47;20160;-79
2022/09/07 18:52:31;;;;;;;3.35;2.30;;;;;;;19.80;54.81;94801.88;2615592;54;20183;-78
2022/09/07 18:55:03;;;;;;;2.10;2.00;;;;;;;19.49;55.34;94778.19;2616324;54;20153;-79
2022/09/07 18:57:32;;;;;;;3.30;3.08;;;;;;;19.37;55.81;94780.31;2616230;39;20554;-78
2022/09/07 19:00:00;;;;;;;3.03;2.72;;;;;;;19.80;55.94;94799.00;2615761;47;20145;-77
2022/09/07 19:02:30;;;;;;;4.13;2.67;;;;;;;20.06;55.53;94800.41;2614116;54;20216;-78
2022/09/07 19:04:58;;;;;;;2.53;2.35;;;;;;;20.44;54.16;94760.06;2615678;47;20164;-79
2022/09/07 19:07:27;;;;;;;1.98;1.88;;;;;;;21.19;54.10;94794.25;2620371;47;20195;-77
2022/09/07 19:09:56;;;;;;;2.15;2.05;;;;;;;21.71;52.71;94800.41;2619156;47;20177;-76
2022/09/07 19:12:27;;;;;;;2.47;1.63;;;;;;;22.08;50.73;94786.41;2618452;47;20244;-78
2022/09/07 19:14:56;;;;;;;4.65;3.63;;;;;;;22.10;51.01;94777.72;2618390;54;20672;-79
2022/09/07 19:17:25;;;;;;;3.35;3.05;;;;;;;21.86;49.44;94770.72;2616140;47;20169;-78
2022/09/07 19:19:54;;;;;;;1.98;1.88;;;;;;;22.18;50.46;94781.25;2616681;47;20203;-79
2022/09/07 19:22:22;;;;;;;4.72;2.17;;;;;;;22.47;49.99;94792.50;2616966;54;20161;-78
2022/09/07 19:24:51;;;;;;;1.77;1.52;;;;;;;22.52;49.48;94768.63;2617301;47;20157;-78
2022/09/07 19:27:20;;;;;;;3.80;1.98;;;;;;;22.62;49.32;94774.28;2619216;54;20176;-78
2022/09/07 19:29:51;;;;;;;2.47;2.38;;;;;;;22.72;49.35;94798.69;2616874;47;20168;-78
2022/09/07 19:32:20;;;;;;;1.92;1.83;;;;;;;22.61;49.50;94784.38;2615954;54;20161;-79
2022/09/07 19:34:53;;;;;;;2.70;1.58;;;;;;;22.73;49.31;94791.47;2616179;47;20172;-78
2022/09/07 19:37:49;;;;;;;;;;;;;;;;;;;;;
2022/09/07 19:40:46;;;;;;;;;;;;;;;;;;;;;